sensor_id;sensor_type;location;lat;lon;timestamp;pressure;altitude;pressure_sealevel;temperature;humidity
58092;BME280;43896;48.178;11.578;2023-08-08T00:00:47;96055.78;;;14.14;59.69
58092;BME280;43896;48.178;11.578;2023-08-08T00:03:13;96063.50;;;14.24;59.50
58092;BME280;43896;48.178;11.578;2023-08-08T00:05:38;96048.56;;;14.08;59.99
58092;BME280;43896;48.178;11.578;2023-08-08T00:08:04;96080.97;;;14.33;59.77
58092;BME280;43896;48.178;11.578;2023-08-08T00:10:29;96049.97;;;14.19;59.33
58092;BME280;43896;48.178;11.578;2023-08-08T00:12:55;96005.00;;;13.96;59.37
58092;BME280;43896;48.178;11.578;2023-08-08T00:15:20;96046.28;;;14.28;58.95
58092;BME280;43896;48.178;11.578;2023-08-08T00:17:46;96055.94;;;13.58;60.93
58092;BME280;43896;48.178;11.578;2023-08-08T00:20:12;96043.22;;;13.85;60.08
58092;BME280;43896;48.178;11.578;2023-08-08T00:22:37;96006.41;;;13.83;59.88
58092;BME280;43896;48.178;11.578;2023-08-08T00:25:03;96014.41;;;13.98;59.30
58092;BME280;43896;48.178;11.578;2023-08-08T00:27:29;96059.91;;;14.40;59.24
58092;BME280;43896;48.178;11.578;2023-08-08T00:29:54;96053.00;;;14.39;58.87
58092;BME280;43896;48.178;11.578;2023-08-08T00:32:20;96073.22;;;14.55;58.97
58092;BME280;43896;48.178;11.578;2023-08-08T00:34:45;96050.22;;;14.32;58.83
58092;BME280;43896;48.178;11.578;2023-08-08T00:37:11;95983.03;;;13.95;58.60
58092;BME280;43896;48.178;11.578;2023-08-08T00:39:36;96016.47;;;14.11;58.63
58092;BME280;43896;48.178;11.578;2023-08-08T00:42:02;95998.00;;;13.80;59.48
58092;BME280;43896;48.178;11.578;2023-08-08T00:44:27;96012.88;;;14.04;59.33
58092;BME280;43896;48.178;11.578;2023-08-08T00:46:53;96027.28;;;14.24;58.47
58092;BME280;43896;48.178;11.578;2023-08-08T00:49:19;96032.88;;;14.30;58.91
58092;BME280;43896;48.178;11.578;2023-08-08T00:51:45;96024.28;;;14.28;58.86
58092;BME280;43896;48.178;11.578;2023-08-08T00:54:11;96065.81;;;14.50;58.61
58092;BME280;43896;48.178;11.578;2023-08-08T00:56:38;96073.44;;;14.45;58.92
58092;BME280;43896;48.178;11.578;2023-08-08T00:59:04;96021.34;;;14.22;58.62
58092;BME280;43896;48.178;11.578;2023-08-08T01:01:29;96025.94;;;14.05;59.19
58092;BME280;43896;48.178;11.578;2023-08-08T01:03:54;95967.22;;;13.87;59.10
58092;BME280;43896;48.178;11.578;2023-08-08T01:09:21;96001.91;;;14.15;58.48
58092;BME280;43896;48.178;11.578;2023-08-08T01:11:49;96020.38;;;14.23;58.65
58092;BME280;43896;48.178;11.578;2023-08-08T01:14:16;96031.72;;;14.32;59.22
58092;BME280;43896;48.178;11.578;2023-08-08T01:16:44;96045.69;;;14.41;58.83
58092;BME280;43896;48.178;11.578;2023-08-08T01:19:12;96049.81;;;14.43;58.69
58092;BME280;43896;48.178;11.578;2023-08-08T01:21:41;95990.00;;;14.11;58.81
58092;BME280;43896;48.178;11.578;2023-08-08T01:24:24;96046.97;;;14.45;58.88
58092;BME280;43896;48.178;11.578;2023-08-08T01:26:55;96007.50;;;14.20;58.93
58092;BME280;43896;48.178;11.578;2023-08-08T01:29:20;96078.28;;;14.65;59.13
58092;BME280;43896;48.178;11.578;2023-08-08T01:31:46;95979.41;;;13.96;59.24
58092;BME280;43896;48.178;11.578;2023-08-08T01:34:11;96077.00;;;14.60;59.18
58092;BME280;43896;48.178;11.578;2023-08-08T01:37:09;96024.06;;;14.37;59.19
58092;BME280;43896;48.178;11.578;2023-08-08T01:39:38;95979.13;;;14.06;58.88
58092;BME280;43896;48.178;11.578;2023-08-08T01:42:06;96010.06;;;14.05;59.39
58092;BME280;43896;48.178;11.578;2023-08-08T01:44:32;95986.31;;;13.97;59.36
58092;BME280;43896;48.178;11.578;2023-08-08T01:46:59;96030.22;;;14.30;59.18
58092;BME280;43896;48.178;11.578;2023-08-08T01:49:25;95998.97;;;14.10;59.64
58092;BME280;43896;48.178;11.578;2023-08-08T01:51:50;95976.44;;;13.91;59.34
58092;BME280;43896;48.178;11.578;2023-08-08T01:54:19;95985.84;;;13.94;59.78
58092;BME280;43896;48.178;11.578;2023-08-08T01:56:45;96014.53;;;14.05;60.16
58092;BME280;43896;48.178;11.578;2023-08-08T01:59:10;96020.25;;;14.17;59.67
58092;BME280;43896;48.178;11.578;2023-08-08T02:01:36;95998.31;;;14.08;59.48
58092;BME280;43896;48.178;11.578;2023-08-08T02:04:02;96017.44;;;14.18;59.28
58092;BME280;43896;48.178;11.578;2023-08-08T02:06:27;96024.94;;;14.30;59.24
58092;BME280;43896;48.178;11.578;2023-08-08T02:08:52;95969.38;;;13.83;59.14
58092;BME280;43896;48.178;11.578;2023-08-08T02:11:18;95956.16;;;13.83;59.12
58092;BME280;43896;48.178;11.578;2023-08-08T02:13:43;95970.56;;;13.81;59.81
58092;BME280;43896;48.178;11.578;2023-08-08T02:16:08;95968.56;;;13.83;59.63
58092;BME280;43896;48.178;11.578;2023-08-08T02:18:34;95956.22;;;13.75;59.48
58092;BME280;43896;48.178;11.578;2023-08-08T02:21:01;95933.19;;;13.61;59.22
58092;BME280;43896;48.178;11.578;2023-08-08T02:23:26;95956.59;;;13.72;59.73
58092;BME280;43896;48.178;11.578;2023-08-08T02:25:54;95969.38;;;13.83;59.03
58092;BME280;43896;48.178;11.578;2023-08-08T02:28:20;95984.72;;;13.88;59.26
58092;BME280;43896;48.178;11.578;2023-08-08T02:30:45;95982.56;;;13.92;59.25
58092;BME280;43896;48.178;11.578;2023-08-08T02:33:11;95986.19;;;13.91;59.19
58092;BME280;43896;48.178;11.578;2023-08-08T02:35:36;95952.94;;;13.73;59.44
58092;BME280;43896;48.178;11.578;2023-08-08T02:38:03;95980.09;;;13.90;58.98
58092;BME280;43896;48.178;11.578;2023-08-08T02:40:28;95951.97;;;13.66;59.30
58092;BME280;43896;48.178;11.578;2023-08-08T02:42:53;96015.53;;;14.04;59.51
58092;BME280;43896;48.178;11.578;2023-08-08T02:45:21;95948.41;;;13.59;59.18
58092;BME280;43896;48.178;11.578;2023-08-08T02:47:46;95967.84;;;13.66;59.45
58092;BME280;43896;48.178;11.578;2023-08-08T02:50:14;95967.84;;;13.66;59.48
58092;BME280;43896;48.178;11.578;2023-08-08T02:52:40;95936.97;;;13.35;59.73
58092;BME280;43896;48.178;11.578;2023-08-08T02:55:06;95973.81;;;13.60;59.81
58092;BME280;43896;48.178;11.578;2023-08-08T02:57:31;95991.25;;;13.77;59.81
58092;BME280;43896;48.178;11.578;2023-08-08T02:59:59;95946.84;;;13.41;59.89
58092;BME280;43896;48.178;11.578;2023-08-08T03:02:24;95996.59;;;13.61;59.90
58092;BME280;43896;48.178;11.578;2023-08-08T03:04:50;95983.72;;;13.58;60.13
58092;BME280;43896;48.178;11.578;2023-08-08T03:07:15;95996.78;;;13.59;60.10
58092;BME280;43896;48.178;11.578;2023-08-08T03:09:41;95966.31;;;13.40;59.64
58092;BME280;43896;48.178;11.578;2023-08-08T03:12:06;95996.59;;;13.61;59.67
58092;BME280;43896;48.178;11.578;2023-08-08T03:14:32;95982.13;;;13.48;60.31
58092;BME280;43896;48.178;11.578;2023-08-08T03:16:58;95986.75;;;13.55;59.85
58092;BME280;43896;48.178;11.578;2023-08-08T03:19:24;95999.44;;;13.51;60.65
58092;BME280;43896;48.178;11.578;2023-08-08T03:21:52;95945.25;;;13.24;60.50
58092;BME280;43896;48.178;11.578;2023-08-08T03:24:17;96031.19;;;13.82;59.82
58092;BME280;43896;48.178;11.578;2023-08-08T03:26:42;96010.59;;;13.69;59.62
58092;BME280;43896;48.178;11.578;2023-08-08T03:29:08;95998.75;;;13.65;59.44
58092;BME280;43896;48.178;11.578;2023-08-08T03:31:35;95951.47;;;13.39;59.44
58092;BME280;43896;48.178;11.578;2023-08-08T03:34:01;96008.88;;;13.85;59.32
58092;BME280;43896;48.178;11.578;2023-08-08T03:36:26;95949.44;;;13.49;58.97
58092;BME280;43896;48.178;11.578;2023-08-08T03:38:51;95938.56;;;13.44;59.11
58092;BME280;43896;48.178;11.578;2023-08-08T03:41:17;95980.06;;;13.67;59.22
58092;BME280;43896;48.178;11.578;2023-08-08T03:43:42;95983.66;;;13.74;59.10
58092;BME280;43896;48.178;11.578;2023-08-08T03:46:08;95981.31;;;13.79;59.09
58092;BME280;43896;48.178;11.578;2023-08-08T03:48:34;95976.19;;;13.55;59.98
58092;BME280;43896;48.178;11.578;2023-08-08T03:50:59;96034.06;;;13.96;59.57
58092;BME280;43896;48.178;11.578;2023-08-08T03:53:25;96011.63;;;13.92;59.59
58092;BME280;43896;48.178;11.578;2023-08-08T03:55:50;95982.47;;;13.77;58.79
58092;BME280;43896;48.178;11.578;2023-08-08T03:58:16;95990.53;;;13.83;59.24
58092;BME280;43896;48.178;11.578;2023-08-08T04:00:42;95991.97;;;13.94;58.76
58092;BME280;43896;48.178;11.578;2023-08-08T04:03:13;96002.00;;;13.99;58.75
58092;BME280;43896;48.178;11.578;2023-08-08T04:05:39;96005.00;;;13.96;58.65
58092;BME280;43896;48.178;11.578;2023-08-08T04:08:05;95991.72;;;13.81;58.79
58092;BME280;43896;48.178;11.578;2023-08-08T04:10:30;95992.19;;;13.84;59.50
58092;BME280;43896;48.178;11.578;2023-08-08T04:12:56;96017.06;;;13.98;58.93
58092;BME280;43896;48.178;11.578;2023-08-08T04:15:21;96032.03;;;14.06;58.74
58092;BME280;43896;48.178;11.578;2023-08-08T04:17:46;96054.09;;;14.21;58.93
58092;BME280;43896;48.178;11.578;2023-08-08T04:20:12;95977.66;;;13.80;59.69
58092;BME280;43896;48.178;11.578;2023-08-08T04:22:37;95983.91;;;13.87;59.42
58092;BME280;43896;48.178;11.578;2023-08-08T04:25:04;95947.03;;;13.63;58.93
58092;BME280;43896;48.178;11.578;2023-08-08T04:27:29;96055.22;;;14.27;59.05
58092;BME280;43896;48.178;11.578;2023-08-08T04:29:55;96010.94;;;13.98;59.39
58092;BME280;43896;48.178;11.578;2023-08-08T04:32:20;95943.28;;;13.57;59.31
58092;BME280;43896;48.178;11.578;2023-08-08T04:34:45;96020.75;;;14.12;59.27
58092;BME280;43896;48.178;11.578;2023-08-08T04:37:11;95965.78;;;13.76;59.25
58092;BME280;43896;48.178;11.578;2023-08-08T04:39:36;95953.81;;;13.65;59.12
58092;BME280;43896;48.178;11.578;2023-08-08T04:42:02;96015.34;;;14.05;59.07
58092;BME280;43896;48.178;11.578;2023-08-08T04:44:27;95993.09;;;14.00;59.54
58092;BME280;43896;48.178;11.578;2023-08-08T04:46:53;96017.31;;;14.12;59.35
58092;BME280;43896;48.178;11.578;2023-08-08T04:49:18;96052.16;;;14.38;59.33
58092;BME280;43896;48.178;11.578;2023-08-08T04:51:43;96030.41;;;14.28;59.53
58092;BME280;43896;48.178;11.578;2023-08-08T04:54:09;96008.34;;;14.13;59.71
58092;BME280;43896;48.178;11.578;2023-08-08T04:56:34;95974.41;;;14.01;59.33
58092;BME280;43896;48.178;11.578;2023-08-08T04:58:59;96026.25;;;14.34;59.80
58092;BME280;43896;48.178;11.578;2023-08-08T05:01:25;96024.75;;;14.31;59.55
58092;BME280;43896;48.178;11.578;2023-08-08T05:03:50;96020.97;;;14.34;59.38
58092;BME280;43896;48.178;11.578;2023-08-08T05:06:16;96055.31;;;14.65;59.38
58092;BME280;43896;48.178;11.578;2023-08-08T05:08:41;95991.28;;;14.23;59.40
58092;BME280;43896;48.178;11.578;2023-08-08T05:11:07;96045.06;;;14.62;59.43
58092;BME280;43896;48.178;11.578;2023-08-08T05:13:32;96000.31;;;14.29;60.14
58092;BME280;43896;48.178;11.578;2023-08-08T05:15:57;95989.84;;;14.36;59.88
58092;BME280;43896;48.178;11.578;2023-08-08T05:18:23;96032.00;;;14.60;59.72
58092;BME280;43896;48.178;11.578;2023-08-08T05:20:48;96015.06;;;14.23;60.59
58092;BME280;43896;48.178;11.578;2023-08-08T05:23:13;95953.84;;;13.57;61.79
58092;BME280;43896;48.178;11.578;2023-08-08T05:25:39;95974.03;;;14.04;60.52
58092;BME280;43896;48.178;11.578;2023-08-08T05:28:04;96054.28;;;14.66;60.49
58092;BME280;43896;48.178;11.578;2023-08-08T05:30:29;96043.22;;;14.62;59.48
58092;BME280;43896;48.178;11.578;2023-08-08T05:32:55;96048.53;;;14.62;59.71
58092;BME280;43896;48.178;11.578;2023-08-08T05:35:20;95991.41;;;14.45;59.33
58092;BME280;43896;48.178;11.578;2023-08-08T05:37:45;95995.44;;;14.56;59.15
58092;BME280;43896;48.178;11.578;2023-08-08T05:40:11;95961.34;;;14.23;59.98
58092;BME280;43896;48.178;11.578;2023-08-08T05:42:39;96045.47;;;14.74;59.71
58092;BME280;43896;48.178;11.578;2023-08-08T05:45:05;95993.66;;;14.56;59.81
58092;BME280;43896;48.178;11.578;2023-08-08T05:47:31;95973.13;;;14.58;59.12
58092;BME280;43896;48.178;11.578;2023-08-08T05:49:56;95997.91;;;14.80;58.99
58092;BME280;43896;48.178;11.578;2023-08-08T05:52:22;95995.25;;;14.66;58.31
58092;BME280;43896;48.178;11.578;2023-08-08T05:54:47;96044.97;;;14.47;60.55
58092;BME280;43896;48.178;11.578;2023-08-08T05:57:13;95970.09;;;14.23;59.90
58092;BME280;43896;48.178;11.578;2023-08-08T05:59:38;95979.41;;;14.57;59.02
58092;BME280;43896;48.178;11.578;2023-08-08T06:02:04;96046.56;;;14.79;59.72
58092;BME280;43896;48.178;11.578;2023-08-08T06:04:29;96032.00;;;14.98;59.01
58092;BME280;43896;48.178;11.578;2023-08-08T06:06:54;95995.00;;;14.90;58.32
58092;BME280;43896;48.178;11.578;2023-08-08T06:09:20;96054.13;;;15.35;57.85
58092;BME280;43896;48.178;11.578;2023-08-08T06:11:45;96019.50;;;15.22;57.54
58092;BME280;43896;48.178;11.578;2023-08-08T06:14:11;96055.97;;;15.20;59.17
58092;BME280;43896;48.178;11.578;2023-08-08T06:16:36;95990.34;;;15.07;59.03
58092;BME280;43896;48.178;11.578;2023-08-08T06:19:01;95983.97;;;15.16;57.63
58092;BME280;43896;48.178;11.578;2023-08-08T06:21:27;96026.06;;;15.41;57.94
58092;BME280;43896;48.178;11.578;2023-08-08T06:23:52;95985.13;;;14.99;58.85
58092;BME280;43896;48.178;11.578;2023-08-08T06:26:21;96044.91;;;15.46;59.03
58092;BME280;43896;48.178;11.578;2023-08-08T06:28:46;96051.09;;;15.68;58.72
58092;BME280;43896;48.178;11.578;2023-08-08T06:31:12;95987.88;;;15.21;57.96
58092;BME280;43896;48.178;11.578;2023-08-08T06:33:38;96014.44;;;15.57;57.20
58092;BME280;43896;48.178;11.578;2023-08-08T06:36:03;95997.66;;;15.35;58.64
58092;BME280;43896;48.178;11.578;2023-08-08T06:38:29;96045.03;;;15.74;57.20
58092;BME280;43896;48.178;11.578;2023-08-08T06:40:59;96031.97;;;15.88;57.09
58092;BME280;43896;48.178;11.578;2023-08-08T06:43:24;96037.97;;;15.75;57.16
58092;BME280;43896;48.178;11.578;2023-08-08T06:45:49;96044.94;;;15.98;56.24
58092;BME280;43896;48.178;11.578;2023-08-08T06:48:15;96023.38;;;15.86;57.13
58092;BME280;43896;48.178;11.578;2023-08-08T06:50:40;96042.13;;;16.21;57.05
58092;BME280;43896;48.178;11.578;2023-08-08T06:53:05;96021.94;;;16.20;56.92
58092;BME280;43896;48.178;11.578;2023-08-08T06:55:31;95990.44;;;15.95;57.11
58092;BME280;43896;48.178;11.578;2023-08-08T06:57:56;96038.09;;;16.25;56.75
58092;BME280;43896;48.178;11.578;2023-08-08T07:00:22;95996.69;;;15.87;56.76
58092;BME280;43896;48.178;11.578;2023-08-08T07:02:47;96023.06;;;16.32;56.11
58092;BME280;43896;48.178;11.578;2023-08-08T07:05:12;96046.31;;;16.52;56.00
58092;BME280;43896;48.178;11.578;2023-08-08T07:07:38;95996.16;;;16.35;56.54
58092;BME280;43896;48.178;11.578;2023-08-08T07:10:04;95997.91;;;16.49;56.50
58092;BME280;43896;48.178;11.578;2023-08-08T07:12:30;96026.22;;;16.85;55.36
58092;BME280;43896;48.178;11.578;2023-08-08T07:14:55;95995.16;;;16.64;55.91
58092;BME280;43896;48.178;11.578;2023-08-08T07:17:21;95962.53;;;16.42;54.47
58092;BME280;43896;48.178;11.578;2023-08-08T07:19:46;96027.31;;;16.98;54.30
58092;BME280;43896;48.178;11.578;2023-08-08T07:22:11;96018.16;;;17.00;53.83
58092;BME280;43896;48.178;11.578;2023-08-08T07:24:37;95978.41;;;16.64;54.53
58092;BME280;43896;48.178;11.578;2023-08-08T07:27:04;96037.06;;;16.69;55.40
58092;BME280;43896;48.178;11.578;2023-08-08T07:29:29;95974.53;;;16.17;56.83
58092;BME280;43896;48.178;11.578;2023-08-08T07:31:57;95967.44;;;16.74;54.43
58092;BME280;43896;48.178;11.578;2023-08-08T07:34:22;95962.41;;;17.07;53.20
58092;BME280;43896;48.178;11.578;2023-08-08T07:36:48;95972.94;;;17.29;53.18
58092;BME280;43896;48.178;11.578;2023-08-08T07:39:14;96021.16;;;17.60;51.71
58092;BME280;43896;48.178;11.578;2023-08-08T07:41:40;96023.41;;;17.63;51.12
58092;BME280;43896;48.178;11.578;2023-08-08T07:44:05;96028.00;;;17.83;50.73
58092;BME280;43896;48.178;11.578;2023-08-08T07:46:31;95963.03;;;17.57;50.19
58092;BME280;43896;48.178;11.578;2023-08-08T07:48:56;95965.53;;;17.72;49.96
58092;BME280;43896;48.178;11.578;2023-08-08T07:51:24;95968.38;;;17.64;49.98
58092;BME280;43896;48.178;11.578;2023-08-08T07:53:50;96015.19;;;18.07;49.72
58092;BME280;43896;48.178;11.578;2023-08-08T07:56:15;96006.09;;;17.81;51.23
58092;BME280;43896;48.178;11.578;2023-08-08T07:58:41;96008.41;;;17.97;50.35
58092;BME280;43896;48.178;11.578;2023-08-08T08:01:06;95971.16;;;17.97;50.37
58092;BME280;43896;48.178;11.578;2023-08-08T08:03:31;96005.84;;;18.44;49.71
58092;BME280;43896;48.178;11.578;2023-08-08T08:05:57;95961.59;;;18.36;48.84
58092;BME280;43896;48.178;11.578;2023-08-08T08:08:22;95945.63;;;18.36;49.58
58092;BME280;43896;48.178;11.578;2023-08-08T08:10:49;95959.13;;;18.62;48.73
58092;BME280;43896;48.178;11.578;2023-08-08T08:13:16;95958.72;;;18.71;47.49
58092;BME280;43896;48.178;11.578;2023-08-08T08:15:42;95918.97;;;18.56;48.07
58092;BME280;43896;48.178;11.578;2023-08-08T08:18:07;95977.16;;;18.60;47.97
58092;BME280;43896;48.178;11.578;2023-08-08T08:20:33;95991.53;;;19.05;47.95
58092;BME280;43896;48.178;11.578;2023-08-08T08:22:59;95971.41;;;19.16;47.97
58092;BME280;43896;48.178;11.578;2023-08-08T08:25:24;95951.97;;;18.49;49.42
58092;BME280;43896;48.178;11.578;2023-08-08T08:27:50;95957.09;;;19.04;49.18
58092;BME280;43896;48.178;11.578;2023-08-08T08:30:15;95951.72;;;19.24;49.16
58092;BME280;43896;48.178;11.578;2023-08-08T08:32:41;95933.28;;;19.09;49.58
58092;BME280;43896;48.178;11.578;2023-08-08T08:35:07;95962.06;;;19.52;47.51
58092;BME280;43896;48.178;11.578;2023-08-08T08:37:33;95981.34;;;19.54;49.34
58092;BME280;43896;48.178;11.578;2023-08-08T08:39:59;95977.13;;;19.85;46.92
58092;BME280;43896;48.178;11.578;2023-08-08T08:42:26;95978.66;;;19.61;46.38
58092;BME280;43896;48.178;11.578;2023-08-08T08:44:58;95939.03;;;19.06;47.50
58092;BME280;43896;48.178;11.578;2023-08-08T08:47:25;95986.22;;;19.64;44.91
58092;BME280;43896;48.178;11.578;2023-08-08T08:49:52;95980.13;;;19.50;45.34
58092;BME280;43896;48.178;11.578;2023-08-08T08:52:18;95990.25;;;19.28;45.99
58092;BME280;43896;48.178;11.578;2023-08-08T08:54:43;95949.59;;;19.39;46.10
58092;BME280;43896;48.178;11.578;2023-08-08T08:57:09;95931.22;;;19.63;46.86
58092;BME280;43896;48.178;11.578;2023-08-08T08:59:35;95934.81;;;19.89;44.66
58092;BME280;43896;48.178;11.578;2023-08-08T09:02:00;95932.91;;;19.96;43.06
58092;BME280;43896;48.178;11.578;2023-08-08T09:04:28;95925.72;;;20.03;43.22
58092;BME280;43896;48.178;11.578;2023-08-08T09:06:54;95908.72;;;19.91;43.98
58092;BME280;43896;48.178;11.578;2023-08-08T09:09:20;95898.56;;;19.74;41.95
58092;BME280;43896;48.178;11.578;2023-08-08T09:11:51;95898.31;;;19.82;43.63
58092;BME280;43896;48.178;11.578;2023-08-08T09:14:22;95886.16;;;19.55;42.60
58092;BME280;43896;48.178;11.578;2023-08-08T09:16:49;95929.78;;;19.67;43.27
58092;BME280;43896;48.178;11.578;2023-08-08T09:19:15;95932.16;;;19.89;43.95
58092;BME280;43896;48.178;11.578;2023-08-08T09:21:42;95949.75;;;20.60;43.98
58092;BME280;43896;48.178;11.578;2023-08-08T09:24:08;95960.88;;;20.82;41.97
58092;BME280;43896;48.178;11.578;2023-08-08T09:26:33;95935.47;;;20.48;44.29
58092;BME280;43896;48.178;11.578;2023-08-08T09:29:00;95932.28;;;20.32;43.66
58092;BME280;43896;48.178;11.578;2023-08-08T09:31:26;95905.31;;;20.66;41.18
58092;BME280;43896;48.178;11.578;2023-08-08T09:33:53;95927.72;;;21.08;40.86
58092;BME280;43896;48.178;11.578;2023-08-08T09:36:19;95891.56;;;20.37;42.57
58092;BME280;43896;48.178;11.578;2023-08-08T09:38:47;95939.91;;;20.54;41.78
58092;BME280;43896;48.178;11.578;2023-08-08T09:41:13;95884.09;;;19.89;43.14
58092;BME280;43896;48.178;11.578;2023-08-08T09:43:39;95919.81;;;19.94;45.06
58092;BME280;43896;48.178;11.578;2023-08-08T09:46:04;95883.13;;;20.15;43.84
58092;BME280;43896;48.178;11.578;2023-08-08T09:48:31;95912.00;;;20.24;44.00
58092;BME280;43896;48.178;11.578;2023-08-08T09:51:02;95939.25;;;20.58;43.19
58092;BME280;43896;48.178;11.578;2023-08-08T09:53:27;95939.19;;;19.70;46.27
58092;BME280;43896;48.178;11.578;2023-08-08T09:55:54;95908.91;;;19.51;45.41
58092;BME280;43896;48.178;11.578;2023-08-08T09:58:21;95919.53;;;20.34;43.73
58092;BME280;43896;48.178;11.578;2023-08-08T10:00:49;95933.16;;;20.26;44.46
58092;BME280;43896;48.178;11.578;2023-08-08T10:03:16;95900.34;;;20.44;40.56
58092;BME280;43896;48.178;11.578;2023-08-08T10:05:41;95903.22;;;20.68;40.70
58092;BME280;43896;48.178;11.578;2023-08-08T10:08:07;95877.34;;;20.43;40.06
58092;BME280;43896;48.178;11.578;2023-08-08T10:10:32;95883.97;;;20.84;41.06
58092;BME280;43896;48.178;11.578;2023-08-08T10:12:59;95913.84;;;21.18;40.74
58092;BME280;43896;48.178;11.578;2023-08-08T10:15:27;95917.25;;;21.07;39.85
58092;BME280;43896;48.178;11.578;2023-08-08T10:17:57;95904.69;;;21.07;39.76
58092;BME280;43896;48.178;11.578;2023-08-08T10:20:26;95922.31;;;21.15;39.48
58092;BME280;43896;48.178;11.578;2023-08-08T10:22:53;95862.72;;;21.08;38.37
58092;BME280;43896;48.178;11.578;2023-08-08T10:25:24;95932.69;;;21.79;39.15
58092;BME280;43896;48.178;11.578;2023-08-08T10:30:29;95914.28;;;21.52;38.90
58092;BME280;43896;48.178;11.578;2023-08-08T10:32:56;95892.41;;;20.81;39.15
58092;BME280;43896;48.178;11.578;2023-08-08T10:35:22;95887.28;;;20.79;40.92
58092;BME280;43896;48.178;11.578;2023-08-08T10:37:54;95933.41;;;20.93;41.78
58092;BME280;43896;48.178;11.578;2023-08-08T10:40:19;95861.91;;;21.07;39.67
58092;BME280;43896;48.178;11.578;2023-08-08T10:42:46;95910.13;;;21.56;38.71
58092;BME280;43896;48.178;11.578;2023-08-08T10:45:14;95917.25;;;21.44;37.79
58092;BME280;43896;48.178;11.578;2023-08-08T10:47:39;95888.13;;;21.35;37.94
58092;BME280;43896;48.178;11.578;2023-08-08T10:50:09;95926.25;;;21.80;37.84
58092;BME280;43896;48.178;11.578;2023-08-08T10:55:34;95890.72;;;21.05;39.14
58092;BME280;43896;48.178;11.578;2023-08-08T10:58:12;95861.91;;;20.20;41.38
58092;BME280;43896;48.178;11.578;2023-08-08T11:00:39;95895.22;;;20.68;40.04
58092;BME280;43896;48.178;11.578;2023-08-08T11:03:05;95914.34;;;21.08;38.43
58092;BME280;43896;48.178;11.578;2023-08-08T11:05:32;95901.47;;;20.55;41.10
58092;BME280;43896;48.178;11.578;2023-08-08T11:07:59;95880.09;;;20.30;41.62
58092;BME280;43896;48.178;11.578;2023-08-08T11:10:25;95854.22;;;20.30;38.96
58092;BME280;43896;48.178;11.578;2023-08-08T11:13:02;95880.75;;;20.00;40.46
58092;BME280;43896;48.178;11.578;2023-08-08T11:15:28;95866.44;;;20.45;40.17
58092;BME280;43896;48.178;11.578;2023-08-08T11:17:57;95899.41;;;21.01;40.18
58092;BME280;43896;48.178;11.578;2023-08-08T11:20:23;95879.97;;;21.12;39.63
58092;BME280;43896;48.178;11.578;2023-08-08T11:22:54;95905.66;;;20.94;39.01
58092;BME280;43896;48.178;11.578;2023-08-08T11:25:21;95881.91;;;21.05;36.87
58092;BME280;43896;48.178;11.578;2023-08-08T11:27:51;95903.88;;;21.07;37.45
58092;BME280;43896;48.178;11.578;2023-08-08T11:30:16;95894.22;;;21.24;37.42
58092;BME280;43896;48.178;11.578;2023-08-08T11:32:41;95867.75;;;21.16;36.73
58092;BME280;43896;48.178;11.578;2023-08-08T11:35:07;95855.22;;;20.98;40.18
58092;BME280;43896;48.178;11.578;2023-08-08T11:37:33;95871.69;;;21.50;38.32
58092;BME280;43896;48.178;11.578;2023-08-08T11:39:58;95827.38;;;21.54;37.14
58092;BME280;43896;48.178;11.578;2023-08-08T11:42:24;95837.34;;;21.78;38.67
58092;BME280;43896;48.178;11.578;2023-08-08T11:44:50;95870.44;;;21.95;38.87
58092;BME280;43896;48.178;11.578;2023-08-08T11:47:16;95882.41;;;22.35;35.71
58092;BME280;43896;48.178;11.578;2023-08-08T11:49:42;95889.06;;;22.91;35.48
58092;BME280;43896;48.178;11.578;2023-08-08T11:52:08;95859.00;;;22.54;34.82
58092;BME280;43896;48.178;11.578;2023-08-08T11:54:33;95838.50;;;22.47;33.54
58092;BME280;43896;48.178;11.578;2023-08-08T11:57:01;95836.41;;;22.38;33.55
58092;BME280;43896;48.178;11.578;2023-08-08T11:59:26;95808.66;;;21.54;33.99
58092;BME280;43896;48.178;11.578;2023-08-08T12:01:52;95820.78;;;22.35;33.26
58092;BME280;43896;48.178;11.578;2023-08-08T12:04:20;95854.19;;;23.03;33.37
58092;BME280;43896;48.178;11.578;2023-08-08T12:06:45;95833.97;;;23.24;33.44
58092;BME280;43896;48.178;11.578;2023-08-08T12:09:12;95792.06;;;23.06;32.50
58092;BME280;43896;48.178;11.578;2023-08-08T12:11:39;95839.63;;;23.11;32.07
58092;BME280;43896;48.178;11.578;2023-08-08T12:14:08;95860.03;;;23.52;30.42
58092;BME280;43896;48.178;11.578;2023-08-08T12:16:37;95856.50;;;23.35;31.58
58092;BME280;43896;48.178;11.578;2023-08-08T12:19:06;95856.50;;;23.35;31.40
58092;BME280;43896;48.178;11.578;2023-08-08T12:21:32;95813.53;;;22.00;34.10
58092;BME280;43896;48.178;11.578;2023-08-08T12:23:58;95813.88;;;22.03;33.77
58092;BME280;43896;48.178;11.578;2023-08-08T12:26:23;95823.25;;;22.60;34.12
58092;BME280;43896;48.178;11.578;2023-08-08T12:28:49;95842.34;;;22.52;35.12
58092;BME280;43896;48.178;11.578;2023-08-08T12:31:16;95832.31;;;22.82;33.11
58092;BME280;43896;48.178;11.578;2023-08-08T12:33:41;95859.59;;;23.72;32.05
58092;BME280;43896;48.178;11.578;2023-08-08T12:36:06;95834.03;;;23.70;30.59
58092;BME280;43896;48.178;11.578;2023-08-08T12:38:32;95825.31;;;23.63;30.17
58092;BME280;43896;48.178;11.578;2023-08-08T12:41:00;95830.16;;;23.20;30.48
58092;BME280;43896;48.178;11.578;2023-08-08T12:43:26;95852.63;;;23.31;30.77
58092;BME280;43896;48.178;11.578;2023-08-08T12:45:51;95796.09;;;23.20;30.10
58092;BME280;43896;48.178;11.578;2023-08-08T12:48:16;95846.44;;;23.71;31.02
58092;BME280;43896;48.178;11.578;2023-08-08T12:50:42;95841.47;;;23.80;31.39
58092;BME280;43896;48.178;11.578;2023-08-08T12:53:07;95829.88;;;23.91;30.55